Terminal Aerodrome Forecast
Issued by NWS

Home | Current Version | Previous Version | Text Only | Print | Product List | Glossary On
Versions: 1 2 3 4 5 6 7 8 9 10 11 12 13 14 15 16 17 18 19 20 21 22 23 24 25 26 27 28 29 30 31 32 33 34
386
FTUS44 KHGX 192359 CCA
TAFSGR
TAF COR
KSGR 192359Z 2000/2024 10006KT P6SM SKC
     FM200100 11007KT P6SM SCT035 SCT060 BKN120
     FM200900 10005KT P6SM VCSH BKN025 BKN090
     FM201700 12010G17KT P6SM VCSH BKN035 OVC080 PROB30 2018/2024
      -TSRA OVC025CB=

USA.gov is the U.S. government's official web portal to all federal, state and local government web resources and services.